createdAt,value
2023-04-16T17:41:39.754Z,96860.78
2023-04-16T17:43:41.534Z,96872.00
2023-04-16T17:45:43.081Z,96877.72
2023-04-16T17:47:44.686Z,96871.03
2023-04-16T17:49:46.446Z,96881.88
2023-04-16T17:51:48.011Z,96892.09
2023-04-16T17:53:49.562Z,96886.03
2023-04-16T17:55:51.514Z,96890.38
2023-04-16T17:57:54.403Z,96891.03
2023-04-16T17:59:56.129Z,96892.97
2023-04-16T18:01:57.796Z,96894.97
2023-04-16T18:03:59.579Z,96898.44
2023-04-16T18:06:01.299Z,96894.78
2023-04-16T18:08:03.175Z,96886.81
2023-04-16T18:10:05.625Z,96896.72
2023-04-16T18:12:07.356Z,96895.03
2023-04-16T18:14:10.558Z,96900.47
2023-04-16T18:16:14.396Z,96897.84
2023-04-16T18:18:16.010Z,96895.34
2023-04-16T18:20:17.954Z,96902.28
2023-04-16T18:22:19.422Z,96912.88
2023-04-16T18:24:20.930Z,96903.13
2023-04-16T18:26:23.033Z,96909.09
2023-04-16T18:28:24.751Z,96899.69
2023-04-16T18:30:28.323Z,96910.56
2023-04-16T18:32:31.256Z,96905.78
2023-04-16T18:34:33.991Z,96909.56
2023-04-16T18:36:35.506Z,96915.53
2023-04-16T18:38:43.729Z,96915.84
2023-04-16T18:40:55.426Z,96918.81
2023-04-16T18:42:57.042Z,96916.31
2023-04-16T18:44:59.415Z,96920.78
2023-04-16T18:47:02.546Z,96923.78
2023-04-16T18:49:04.272Z,96923.13
2023-04-16T18:51:05.839Z,96922.28
2023-04-16T18:53:07.627Z,96924.31
2023-04-16T18:55:10.072Z,96932.72
2023-04-16T18:57:11.541Z,96936.03
2023-04-16T18:59:14.188Z,96935.88
2023-04-16T19:01:17.002Z,96943.31
2023-04-16T19:03:19.944Z,96941.34
2023-04-16T19:05:21.570Z,96942.78
2023-04-16T19:07:23.682Z,96945.59
2023-04-16T19:09:25.152Z,96942.94
2023-04-16T19:11:28.970Z,96943.47
2023-04-16T19:13:30.596Z,96941.66
2023-04-16T19:15:33.796Z,96945.28
2023-04-16T19:17:36.398Z,96948.91
2023-04-16T19:19:39.235Z,96945.59
2023-04-16T19:21:40.678Z,96946.13
2023-04-16T19:23:43.387Z,96951.09
2023-04-16T19:25:48.131Z,96949.13
2023-04-16T19:27:49.857Z,96941.66
2023-04-16T19:29:51.315Z,96953.91
2023-04-16T19:31:53.028Z,96959.88
2023-04-16T19:33:54.578Z,96953.06
2023-04-16T19:35:57.413Z,96959.19
2023-04-16T19:37:59.824Z,96962.53
2023-04-16T19:42:28.354Z,96955.56
2023-04-16T19:44:29.880Z,96957.22
2023-04-16T19:46:31.700Z,96955.72
2023-04-16T19:48:33.173Z,96957.22
2023-04-16T19:50:34.662Z,96957.91
2023-04-16T19:52:37.478Z,96960.84
2023-04-16T19:54:39.697Z,96956.06
2023-04-16T19:56:41.164Z,96960.84
2023-04-16T19:58:42.634Z,96956.41
2023-04-16T20:00:45.294Z,96965.00
2023-04-16T20:02:46.919Z,96960.53
2023-04-16T20:04:48.577Z,96961.91
2023-04-16T20:06:49.927Z,96963.88
2023-04-16T20:08:53.580Z,96961.69
2023-04-16T20:10:56.177Z,96964.19
2023-04-16T20:12:57.646Z,96967.66
2023-04-16T20:14:59.385Z,96972.94
2023-04-16T20:17:04.015Z,96970.63
2023-04-16T20:19:08.009Z,96974.94
2023-04-16T20:21:10.365Z,96961.47
2023-04-16T20:23:11.703Z,96971.75
2023-04-16T20:25:14.677Z,96959.81
2023-04-16T20:27:16.485Z,96967.44
2023-04-16T20:29:17.970Z,96968.13
2023-04-16T20:31:19.506Z,96961.69
2023-04-16T20:33:21.324Z,96962.00
2023-04-16T20:35:22.792Z,96960.69
2023-04-16T20:37:24.262Z,96959.19
2023-04-16T20:39:25.810Z,96960.84
2023-04-16T20:41:28.676Z,96966.97
2023-04-16T20:43:30.160Z,96965.84
2023-04-16T20:45:31.694Z,96957.22
2023-04-16T20:47:33.247Z,96966.47
2023-04-16T20:49:34.565Z,96961.84
2023-04-16T20:51:37.997Z,96949.44
2023-04-16T20:53:40.027Z,96957.38
2023-04-16T20:55:42.909Z,96956.41
2023-04-16T20:57:45.767Z,96954.22
2023-04-16T20:59:47.297Z,96950.56
2023-04-16T21:01:49.051Z,96948.75
2023-04-16T21:03:50.935Z,96951.94
2023-04-16T21:05:53.732Z,96953.59
2023-04-16T21:07:55.906Z,96949.97
2023-04-16T21:09:57.526Z,96953.59
2023-04-16T21:11:58.850Z,96957.38
2023-04-16T21:14:01.941Z,96948.28
2023-04-16T21:16:03.434Z,96950.41
2023-04-16T21:18:05.249Z,96949.22
2023-04-16T21:20:08.348Z,96947.25
2023-04-16T21:22:09.882Z,96950.88
2023-04-16T21:24:11.342Z,96949.91
2023-04-16T21:26:13.104Z,96953.22
2023-04-16T21:28:14.680Z,96954.22
2023-04-16T21:30:18.462Z,96951.56
2023-04-16T21:32:19.946Z,96953.22
2023-04-16T21:34:21.518Z,96954.84
2023-04-16T21:36:22.906Z,96954.22
2023-04-16T21:38:24.572Z,96951.03
2023-04-16T21:40:26.599Z,96950.22
2023-04-16T21:42:28.144Z,96947.88
2023-04-16T21:44:29.537Z,96949.69
2023-04-16T21:46:32.492Z,96952.50
2023-04-16T21:48:34.061Z,96949.84
2023-04-16T21:50:35.529Z,96951.78
2023-04-16T21:52:37.159Z,96953.16
2023-04-16T21:54:38.482Z,96949.00
2023-04-16T21:56:40.063Z,96956.09
2023-04-16T21:58:41.535Z,96953.16
2023-04-16T22:00:43.117Z,96948.47
2023-04-16T22:02:45.905Z,96947.47
2023-04-16T22:04:47.628Z,96948.47
2023-04-16T22:06:48.933Z,96945.50
2023-04-16T22:08:50.429Z,96943.84
2023-04-16T22:10:51.893Z,96944.56
2023-04-16T22:12:53.366Z,96946.06
2023-04-16T22:15:02.501Z,96944.56
2023-04-16T22:17:04.881Z,96950.53
2023-04-16T22:19:07.729Z,96950.53
2023-04-16T22:21:09.264Z,96938.13
2023-04-16T22:23:10.740Z,96942.28
2023-04-16T22:25:12.366Z,96943.94
2023-04-16T22:27:13.827Z,96945.44
2023-04-16T22:29:15.298Z,96949.53
2023-04-16T22:31:16.796Z,96934.91
2023-04-16T22:33:18.435Z,96940.69
2023-04-16T22:35:21.433Z,96938.56
2023-04-16T22:37:22.963Z,96939.09
2023-04-16T22:39:24.503Z,96933.97
2023-04-16T22:41:25.876Z,96942.88
2023-04-16T22:43:27.352Z,96940.38
2023-04-16T22:45:29.417Z,96936.63
2023-04-16T22:47:30.977Z,96937.44
2023-04-16T22:49:32.307Z,96939.25
2023-04-16T22:51:35.160Z,96938.41
2023-04-16T22:53:36.753Z,96939.47
2023-04-16T22:55:38.240Z,96939.25
2023-04-16T22:57:39.836Z,96934.91
2023-04-16T22:59:41.133Z,96935.63
2023-04-16T23:01:42.688Z,96938.56
2023-04-16T23:03:44.376Z,96932.81
2023-04-16T23:05:45.918Z,96937.56
2023-04-16T23:07:48.763Z,96939.25
2023-04-16T23:09:50.280Z,96942.28
2023-04-16T23:11:51.738Z,96938.63
2023-04-16T23:13:53.213Z,96934.78
2023-04-16T23:15:54.785Z,96942.59
2023-04-16T23:17:56.399Z,96938.28
2023-04-16T23:19:57.832Z,96930.34
2023-04-16T23:21:59.304Z,96935.06
2023-04-16T23:24:02.200Z,96932.44
2023-04-16T23:26:04.114Z,96937.72
2023-04-16T23:28:05.591Z,96933.97
2023-04-16T23:30:08.419Z,96928.28
2023-04-16T23:32:09.918Z,96932.59
2023-04-16T23:34:11.410Z,96933.41
2023-04-16T23:36:13.164Z,96927.97
2023-04-16T23:38:14.709Z,96926.97
2023-04-16T23:40:17.423Z,96931.00
2023-04-16T23:42:18.923Z,96931.44
2023-04-16T23:44:20.390Z,96928.94
2023-04-16T23:46:21.942Z,96931.75
2023-04-16T23:48:23.256Z,96923.97
2023-04-16T23:50:24.705Z,96932.91
2023-04-16T23:52:26.239Z,96927.59
2023-04-16T23:54:27.555Z,96925.63
2023-04-16T23:56:30.394Z,96932.59
2023-04-16T23:58:31.849Z,96928.94
